createdAt,value
2022-12-04T00:00:11.737Z,31.08
2022-12-04T00:02:38.082Z,33.28
2022-12-04T00:05:04.813Z,32.55
2022-12-04T00:07:31.399Z,32.50
2022-12-04T00:09:57.750Z,28.73
2022-12-04T00:12:24.137Z,31.17
2022-12-04T00:15:23.898Z,30.38
2022-12-04T00:17:36.747Z,33.72
2022-12-04T00:20:03.674Z,33.88
2022-12-04T00:22:30.040Z,26.55
2022-12-04T00:24:56.331Z,30.75
2022-12-04T00:27:22.603Z,31.25
2022-12-04T00:29:48.949Z,29.00
2022-12-04T00:32:15.280Z,33.05
2022-12-04T00:34:41.555Z,25.90
2022-12-04T00:37:07.843Z,29.60
2022-12-04T00:39:34.161Z,35.35
2022-12-04T00:42:00.459Z,35.97
2022-12-04T00:44:27.274Z,31.92
2022-12-04T00:46:53.542Z,30.17
2022-12-04T00:49:19.831Z,34.08
2022-12-04T00:51:46.204Z,29.38
2022-12-04T00:54:12.540Z,31.45
2022-12-04T00:56:39.018Z,30.70
2022-12-04T00:59:05.930Z,29.85
2022-12-04T01:01:32.399Z,32.58
2022-12-04T01:03:58.827Z,27.10
2022-12-04T01:06:26.490Z,33.17
2022-12-04T01:08:53.812Z,29.52
2022-12-04T01:11:20.957Z,33.50
2022-12-04T01:13:47.492Z,28.90
2022-12-04T01:16:21.520Z,26.55
2022-12-04T01:18:48.203Z,32.22
2022-12-04T01:21:14.552Z,35.95
2022-12-04T01:23:41.051Z,31.50
2022-12-04T01:26:07.754Z,19.77
2022-12-04T01:28:34.260Z,31.35
2022-12-04T01:31:01.796Z,24.95
2022-12-04T01:33:28.869Z,31.48
2022-12-04T01:35:56.091Z,33.28
2022-12-04T01:38:22.516Z,36.38
2022-12-04T01:40:49.371Z,33.03
2022-12-04T01:43:16.365Z,32.50
2022-12-04T01:45:44.001Z,23.00
2022-12-04T01:48:10.393Z,33.40
2022-12-04T01:50:38.004Z,25.30
2022-12-04T01:53:04.360Z,27.08
2022-12-04T01:55:31.157Z,36.30
2022-12-04T01:57:58.647Z,28.40
2022-12-04T02:00:25.152Z,31.25
2022-12-04T02:02:51.533Z,24.40
2022-12-04T02:05:20.563Z,32.83
2022-12-04T02:07:48.434Z,32.92
2022-12-04T02:10:17.131Z,29.63
2022-12-04T02:12:43.512Z,32.30
2022-12-04T02:15:15.606Z,30.17
2022-12-04T02:17:55.633Z,37.38
2022-12-04T02:20:24.729Z,31.35
2022-12-04T02:22:57.072Z,27.58
2022-12-04T02:25:26.252Z,33.60
2022-12-04T02:28:00.082Z,34.60
2022-12-04T02:30:27.460Z,31.58
2022-12-04T02:33:15.073Z,35.30
2022-12-04T02:35:44.457Z,29.02
2022-12-04T02:38:10.782Z,32.90
2022-12-04T02:40:48.514Z,33.78
2022-12-04T02:43:14.850Z,29.85
2022-12-04T02:45:51.239Z,32.35
2022-12-04T02:48:19.558Z,30.92
2022-12-04T02:50:48.206Z,32.92
2022-12-04T02:53:19.585Z,30.25
2022-12-04T02:55:57.396Z,32.78
2022-12-04T02:58:26.573Z,33.22
2022-12-04T03:00:54.196Z,31.85
2022-12-04T03:03:23.210Z,33.90
2022-12-04T03:06:02.281Z,33.92
2022-12-04T03:08:30.713Z,31.48
2022-12-04T03:11:00.310Z,33.95
2022-12-04T03:13:30.693Z,31.52
2022-12-04T03:16:01.956Z,32.58
2022-12-04T03:18:48.651Z,34.20
2022-12-04T03:21:17.643Z,33.53
2022-12-04T03:23:46.380Z,34.53
2022-12-04T03:26:17.655Z,31.52
2022-12-04T03:28:49.125Z,35.97
2022-12-04T03:31:18.882Z,34.50
2022-12-04T03:33:47.141Z,34.78
2022-12-04T03:36:18.028Z,34.92
2022-12-04T03:38:47.941Z,32.08
2022-12-04T03:41:24.264Z,31.15
2022-12-04T03:43:52.125Z,34.72
2022-12-04T03:46:27.900Z,34.88
2022-12-04T03:48:57.834Z,33.08
2022-12-04T03:51:26.982Z,25.92
2022-12-04T03:53:58.451Z,32.72
2022-12-04T03:56:26.770Z,32.22
2022-12-04T03:58:57.081Z,36.13
2022-12-04T04:01:27.077Z,31.17
2022-12-04T04:03:53.814Z,35.72
2022-12-04T04:06:32.518Z,29.25
2022-12-04T04:09:02.513Z,35.65
2022-12-04T04:11:34.242Z,36.40
2022-12-04T04:14:25.106Z,27.67
2022-12-04T04:17:13.505Z,31.38
2022-12-04T04:20:00.848Z,34.33
2022-12-04T04:22:45.692Z,34.92
2022-12-04T04:25:13.928Z,34.90
2022-12-04T04:27:40.229Z,36.65
2022-12-04T04:30:07.472Z,33.55
2022-12-04T04:32:33.785Z,31.60
2022-12-04T04:35:08.936Z,34.50
2022-12-04T04:37:40.529Z,33.45
2022-12-04T04:40:13.407Z,33.92
2022-12-04T04:45:08.292Z,25.48
2022-12-04T04:47:40.859Z,35.67
2022-12-04T04:50:09.212Z,34.45
2022-12-04T04:52:37.485Z,27.63
2022-12-04T04:55:04.429Z,31.50
2022-12-04T04:57:33.876Z,37.60
2022-12-04T05:00:00.963Z,36.22
2022-12-04T05:02:27.415Z,28.38
2022-12-04T05:04:54.480Z,37.03
2022-12-04T05:07:20.830Z,33.47
2022-12-04T05:09:47.174Z,36.17
2022-12-04T05:12:13.495Z,29.63
2022-12-04T05:14:39.805Z,25.42
2022-12-04T05:17:12.132Z,32.63
2022-12-04T05:22:22.056Z,34.92
2022-12-04T05:24:48.474Z,33.38
2022-12-04T05:27:15.027Z,36.67
2022-12-04T05:29:41.361Z,34.45
2022-12-04T05:32:07.729Z,31.38
2022-12-04T05:34:33.998Z,34.17
2022-12-04T05:37:00.413Z,35.42
2022-12-04T05:39:27.472Z,32.92
2022-12-04T05:41:53.810Z,33.67
2022-12-04T05:44:20.339Z,33.75
2022-12-04T05:46:46.769Z,35.40
2022-12-04T05:49:13.127Z,33.67
2022-12-04T05:51:39.405Z,32.97
2022-12-04T05:54:05.737Z,36.20
2022-12-04T05:56:32.083Z,33.00
2022-12-04T05:58:58.445Z,31.95
2022-12-04T06:01:25.105Z,33.15
2022-12-04T06:03:51.626Z,32.38
2022-12-04T06:06:22.800Z,29.10
2022-12-04T06:08:53.025Z,34.53
2022-12-04T06:11:21.012Z,34.40
2022-12-04T06:13:47.575Z,31.65
2022-12-04T06:16:18.556Z,33.65
2022-12-04T06:18:45.174Z,29.65
2022-12-04T06:21:11.512Z,23.83
2022-12-04T06:23:37.944Z,31.33
2022-12-04T06:26:07.173Z,25.45
2022-12-04T06:28:34.501Z,32.00
2022-12-04T06:31:04.926Z,26.45
2022-12-04T06:33:31.614Z,29.38
2022-12-04T06:35:59.007Z,34.63
2022-12-04T06:38:25.321Z,30.40
2022-12-04T06:40:51.656Z,34.85
2022-12-04T06:43:17.944Z,29.17
2022-12-04T06:45:44.359Z,32.42
2022-12-04T06:48:10.671Z,28.73
2022-12-04T06:50:36.982Z,26.48
2022-12-04T06:53:08.124Z,31.63
2022-12-04T06:55:34.995Z,30.00
2022-12-04T06:58:01.288Z,36.15
2022-12-04T07:00:27.637Z,31.75
2022-12-04T07:02:53.982Z,35.40
2022-12-04T07:05:20.310Z,36.25
2022-12-04T07:07:46.615Z,27.52
2022-12-04T07:10:12.972Z,34.25
2022-12-04T07:12:39.257Z,30.52
2022-12-04T07:15:05.817Z,33.58
2022-12-04T07:17:32.164Z,33.80
2022-12-04T07:19:58.702Z,25.00
2022-12-04T07:22:26.235Z,33.38
2022-12-04T07:24:52.607Z,27.48
2022-12-04T07:27:18.977Z,33.42
2022-12-04T07:29:45.257Z,33.03
2022-12-04T07:32:11.550Z,30.85
2022-12-04T07:34:37.929Z,36.78
2022-12-04T07:37:04.277Z,35.97
2022-12-04T07:39:30.643Z,37.70
2022-12-04T07:41:57.022Z,29.92
2022-12-04T07:44:23.397Z,25.15
2022-12-04T07:46:49.679Z,26.77
2022-12-04T07:49:16.286Z,32.28
2022-12-04T07:51:42.614Z,34.03
2022-12-04T07:54:09.341Z,37.03
2022-12-04T07:56:35.683Z,22.38
2022-12-04T07:59:02.287Z,30.20
2022-12-04T08:01:28.758Z,32.88
2022-12-04T08:03:55.805Z,25.30
2022-12-04T08:06:22.941Z,30.05
2022-12-04T08:08:50.124Z,27.60
2022-12-04T08:11:17.894Z,23.55
2022-12-04T08:13:44.570Z,37.33
2022-12-04T08:16:11.637Z,31.92
2022-12-04T08:18:38.145Z,28.30
2022-12-04T08:21:08.695Z,32.35
2022-12-04T08:23:35.304Z,31.88
2022-12-04T08:26:02.072Z,34.15
2022-12-04T08:28:28.743Z,35.13
2022-12-04T08:30:55.196Z,26.65
2022-12-04T08:33:21.821Z,27.13
2022-12-04T08:35:48.165Z,25.42
2022-12-04T08:38:14.437Z,24.08
2022-12-04T08:40:40.865Z,32.85
2022-12-04T08:43:07.297Z,34.47
2022-12-04T08:45:33.881Z,33.40
2022-12-04T08:48:00.229Z,29.13
2022-12-04T08:50:27.223Z,25.65
2022-12-04T08:52:53.639Z,26.80
2022-12-04T08:55:19.997Z,33.05
2022-12-04T08:57:46.316Z,31.48
2022-12-04T09:00:12.940Z,29.00
2022-12-04T09:02:39.228Z,25.45
2022-12-04T09:05:05.598Z,31.77
2022-12-04T09:07:31.984Z,27.17
2022-12-04T09:09:58.710Z,29.60
2022-12-04T09:12:25.236Z,31.63
2022-12-04T09:14:51.550Z,31.60
2022-12-04T09:17:17.997Z,26.95
2022-12-04T09:19:44.404Z,32.83
2022-12-04T09:22:11.005Z,30.92
2022-12-04T09:24:37.454Z,27.15
2022-12-04T09:27:03.838Z,29.20
2022-12-04T09:29:30.180Z,31.98
2022-12-04T09:31:56.661Z,25.08
2022-12-04T09:34:24.217Z,28.73
2022-12-04T09:36:50.670Z,20.77
2022-12-04T09:39:17.031Z,34.90
2022-12-04T09:41:58.582Z,31.70
2022-12-04T09:44:29.486Z,29.48
2022-12-04T09:47:00.614Z,27.52
2022-12-04T09:49:39.037Z,29.67
2022-12-04T09:52:22.121Z,27.23
2022-12-04T09:54:50.037Z,22.42
2022-12-04T09:57:25.382Z,25.85
2022-12-04T09:59:52.508Z,22.08
2022-12-04T10:02:28.691Z,31.70
2022-12-04T10:04:55.830Z,21.48
2022-12-04T10:07:22.229Z,31.48
2022-12-04T10:09:50.542Z,26.60
2022-12-04T10:12:37.738Z,26.23
2022-12-04T10:15:11.267Z,24.42
2022-12-04T10:17:44.992Z,25.38
2022-12-04T10:20:30.138Z,28.85
2022-12-04T10:23:14.953Z,18.98
2022-12-04T10:25:41.813Z,20.48
2022-12-04T10:28:26.964Z,23.27
2022-12-04T10:30:55.101Z,26.40
2022-12-04T10:33:36.817Z,18.52
2022-12-04T10:36:04.243Z,19.65
2022-12-04T10:38:35.244Z,25.40
2022-12-04T10:41:13.318Z,16.48
2022-12-04T10:43:57.709Z,20.55
2022-12-04T10:46:25.483Z,20.58
2022-12-04T10:48:54.578Z,22.10
2022-12-04T10:51:22.517Z,18.90
2022-12-04T10:53:50.035Z,20.75
2022-12-04T10:56:23.729Z,15.80
2022-12-04T10:58:56.985Z,13.82
2022-12-04T11:01:23.828Z,15.05
2022-12-04T11:04:10.258Z,19.75
2022-12-04T11:06:36.629Z,19.95
2022-12-04T11:09:03.600Z,20.58
2022-12-04T11:11:31.383Z,17.27
2022-12-04T11:14:06.829Z,16.33
2022-12-04T11:16:37.879Z,13.82
2022-12-04T11:19:18.094Z,20.20
2022-12-04T11:21:44.605Z,16.63
2022-12-04T11:24:29.402Z,16.83
2022-12-04T11:26:56.589Z,14.05
2022-12-04T11:29:26.124Z,16.15
2022-12-04T11:31:53.360Z,18.10
2022-12-04T11:34:24.421Z,18.23
2022-12-04T11:36:55.959Z,19.17
2022-12-04T11:39:22.339Z,12.55
2022-12-04T11:41:58.572Z,16.38
2022-12-04T11:44:29.174Z,14.55
2022-12-04T11:46:57.069Z,16.85
2022-12-04T11:49:24.714Z,14.57
2022-12-04T11:52:01.821Z,15.80
2022-12-04T11:54:34.154Z,16.50
2022-12-04T11:57:08.037Z,12.55
2022-12-04T11:59:52.485Z,12.43
2022-12-04T12:02:30.892Z,11.80
2022-12-04T12:04:57.262Z,13.85
2022-12-04T12:07:32.622Z,13.95
2022-12-04T12:10:07.893Z,9.50
2022-12-04T12:12:46.718Z,16.90
2022-12-04T12:15:23.465Z,11.98
2022-12-04T12:17:49.744Z,15.10
2022-12-04T12:20:25.138Z,12.98
2022-12-04T12:22:51.405Z,14.18
2022-12-04T12:25:26.546Z,15.50
2022-12-04T12:28:10.398Z,13.85
2022-12-04T12:30:42.684Z,13.05
2022-12-04T12:33:14.799Z,14.05
2022-12-04T12:35:47.006Z,15.07
2022-12-04T12:38:18.340Z,13.75
2022-12-04T12:40:49.990Z,9.85
2022-12-04T12:43:20.917Z,15.40
2022-12-04T12:45:50.152Z,13.50
2022-12-04T12:48:28.548Z,11.73
2022-12-04T12:51:14.893Z,12.32
2022-12-04T12:53:47.894Z,15.25
2022-12-04T12:56:14.339Z,12.30
2022-12-04T12:58:45.941Z,9.48
2022-12-04T13:01:15.206Z,12.50
2022-12-04T13:03:54.965Z,8.02
2022-12-04T13:06:23.502Z,12.30
2022-12-04T13:08:49.761Z,10.30
2022-12-04T13:11:17.916Z,10.85
2022-12-04T13:13:48.824Z,12.68
2022-12-04T13:16:33.857Z,12.40
2022-12-04T13:19:06.574Z,13.32
2022-12-04T13:21:32.964Z,13.18
2022-12-04T13:23:59.233Z,14.25
2022-12-04T13:26:49.276Z,9.32
2022-12-04T13:29:34.981Z,10.77
2022-12-04T13:32:26.810Z,13.70
2022-12-04T13:35:03.851Z,15.93
2022-12-04T13:37:47.281Z,14.85
2022-12-04T13:40:25.513Z,14.77
2022-12-04T13:42:51.909Z,10.20
2022-12-04T13:45:28.810Z,15.10
2022-12-04T13:47:59.291Z,14.05
2022-12-04T13:50:32.740Z,12.88
2022-12-04T13:53:00.736Z,15.52
2022-12-04T13:55:37.286Z,14.52
2022-12-04T13:58:03.601Z,15.38
2022-12-04T14:00:31.738Z,11.65
2022-12-04T14:03:00.141Z,13.25
2022-12-04T14:05:28.026Z,15.45
2022-12-04T14:08:06.977Z,12.00
2022-12-04T14:10:36.320Z,12.85
2022-12-04T14:13:17.843Z,17.00
2022-12-04T14:15:44.252Z,17.27
2022-12-04T14:18:10.572Z,15.23
2022-12-04T14:20:37.303Z,19.08
2022-12-04T14:23:08.132Z,19.85
2022-12-04T14:25:36.624Z,17.23
2022-12-04T14:28:13.359Z,17.80
2022-12-04T14:30:40.492Z,18.20
2022-12-04T14:33:15.588Z,17.80
2022-12-04T14:35:47.762Z,17.50
2022-12-04T14:38:20.249Z,20.45
2022-12-04T14:40:51.793Z,22.45
2022-12-04T14:43:19.925Z,20.67
2022-12-04T14:45:54.717Z,21.77
2022-12-04T14:48:40.064Z,14.35
2022-12-04T14:51:18.845Z,13.95
2022-12-04T14:53:59.972Z,17.55
2022-12-04T14:56:51.916Z,21.83
2022-12-04T14:59:20.058Z,17.27
2022-12-04T15:01:48.214Z,20.65
2022-12-04T15:04:14.706Z,19.55
2022-12-04T15:06:41.212Z,19.63
2022-12-04T15:09:34.890Z,15.75
2022-12-04T15:12:19.640Z,20.95
2022-12-04T15:14:47.245Z,23.02
2022-12-04T15:17:15.539Z,23.98
2022-12-04T15:19:42.028Z,22.85
2022-12-04T15:22:11.923Z,24.55
2022-12-04T15:24:38.761Z,20.67
2022-12-04T15:27:06.916Z,22.42
2022-12-04T15:29:34.742Z,22.92
2022-12-04T15:32:02.931Z,17.60
2022-12-04T15:34:41.724Z,25.40
2022-12-04T15:37:19.595Z,23.00
2022-12-04T15:39:46.153Z,17.27
2022-12-04T15:42:16.731Z,20.13
2022-12-04T15:44:52.433Z,23.25
2022-12-04T15:47:23.398Z,21.33
2022-12-04T15:49:49.762Z,25.65
2022-12-04T15:52:17.901Z,25.00
2022-12-04T15:54:48.255Z,26.58
2022-12-04T15:57:25.310Z,26.67
2022-12-04T15:59:51.813Z,22.95
2022-12-04T16:02:23.371Z,22.33
2022-12-04T16:04:49.645Z,19.73
2022-12-04T16:07:21.712Z,23.92
2022-12-04T16:09:52.293Z,20.77
2022-12-04T16:12:23.535Z,21.83
2022-12-04T16:14:51.953Z,22.25
2022-12-04T16:17:18.978Z,18.38
2022-12-04T16:19:45.318Z,20.27
2022-12-04T16:22:19.321Z,21.88
2022-12-04T16:24:46.765Z,19.38
2022-12-04T16:27:14.627Z,20.73
2022-12-04T16:29:41.142Z,19.55
2022-12-04T16:32:10.983Z,14.80
2022-12-04T16:34:37.412Z,20.55
2022-12-04T16:37:10.245Z,24.27
2022-12-04T16:42:14.105Z,24.80
2022-12-04T16:47:06.791Z,20.42
2022-12-04T16:49:33.221Z,25.30
2022-12-04T16:51:59.512Z,23.63
2022-12-04T16:54:25.838Z,24.23
2022-12-04T16:56:52.361Z,21.45
2022-12-04T16:59:18.692Z,23.13
2022-12-04T17:01:47.333Z,24.70
2022-12-04T17:04:14.342Z,24.30
2022-12-04T17:06:40.781Z,24.90
2022-12-04T17:09:07.169Z,24.08
2022-12-04T17:11:33.493Z,24.58
2022-12-04T17:13:59.797Z,20.88
2022-12-04T17:16:28.871Z,18.60
2022-12-04T17:18:55.225Z,16.92
2022-12-04T17:21:21.535Z,25.35
2022-12-04T17:23:48.044Z,21.70
2022-12-04T17:26:14.791Z,13.60
2022-12-04T17:28:41.208Z,18.02
2022-12-04T17:31:18.188Z,20.13
2022-12-04T17:33:45.186Z,22.00
2022-12-04T17:36:12.659Z,16.83
2022-12-04T17:38:40.724Z,14.48
2022-12-04T17:41:07.790Z,16.70
2022-12-04T17:43:34.340Z,21.55
2022-12-04T17:46:01.087Z,21.75
2022-12-04T17:48:28.700Z,21.13
2022-12-04T17:51:08.976Z,20.98
2022-12-04T17:53:35.661Z,15.98
2022-12-04T17:56:09.821Z,17.02
2022-12-04T17:58:36.212Z,15.57
2022-12-04T18:01:06.391Z,15.18
2022-12-04T18:03:32.997Z,15.73
2022-12-04T18:05:59.386Z,16.55
2022-12-04T18:08:28.813Z,18.13
2022-12-04T18:10:56.246Z,21.25
2022-12-04T18:13:22.615Z,17.42
2022-12-04T18:15:48.912Z,16.38
2022-12-04T18:18:15.235Z,17.35
2022-12-04T18:20:42.276Z,18.70
2022-12-04T18:23:08.948Z,20.17
2022-12-04T18:25:35.261Z,20.25
2022-12-04T18:28:01.635Z,22.42
2022-12-04T18:30:28.057Z,23.35
2022-12-04T18:32:54.717Z,22.15
2022-12-04T18:35:21.053Z,22.30
2022-12-04T18:37:47.650Z,24.75
2022-12-04T18:40:14.703Z,26.30
2022-12-04T18:42:41.064Z,23.30
2022-12-04T18:45:07.737Z,26.33
2022-12-04T18:47:36.419Z,18.23
2022-12-04T18:50:02.761Z,19.13
2022-12-04T18:52:29.122Z,26.25
2022-12-04T18:54:55.485Z,30.92
2022-12-04T18:57:21.794Z,28.58
2022-12-04T18:59:48.116Z,28.73
2022-12-04T19:02:14.488Z,24.23
2022-12-04T19:04:40.872Z,32.05
2022-12-04T19:07:07.147Z,32.35
2022-12-04T19:10:09.520Z,18.55
2022-12-04T19:12:19.738Z,20.33
2022-12-04T19:14:46.026Z,30.85
2022-12-04T19:17:12.369Z,30.67
2022-12-04T19:19:38.753Z,31.30
2022-12-04T19:22:05.127Z,34.65
2022-12-04T19:24:31.487Z,32.63
2022-12-04T19:26:57.843Z,21.83
2022-12-04T19:29:24.262Z,32.80
2022-12-04T19:31:54.654Z,34.13
2022-12-04T19:34:24.206Z,28.13
2022-12-04T19:36:51.086Z,26.45
2022-12-04T19:39:17.448Z,35.53
2022-12-04T19:41:43.853Z,33.50
2022-12-04T19:44:40.118Z,32.83
2022-12-04T19:46:56.595Z,29.38
2022-12-04T19:49:23.025Z,33.45
2022-12-04T19:51:49.539Z,34.25
2022-12-04T19:54:16.176Z,31.23
2022-12-04T19:56:45.900Z,30.85
2022-12-04T19:59:12.460Z,28.38
2022-12-04T20:01:38.841Z,29.52
2022-12-04T20:04:06.209Z,29.30
2022-12-04T20:06:40.587Z,26.88
2022-12-04T20:09:09.148Z,31.02
2022-12-04T20:11:35.792Z,30.23
2022-12-04T20:14:03.946Z,26.63
2022-12-04T20:16:32.110Z,30.92
2022-12-04T20:18:59.052Z,26.60
2022-12-04T20:21:30.150Z,26.40
2022-12-04T20:23:57.751Z,29.83
2022-12-04T20:26:25.309Z,26.40
2022-12-04T20:28:51.909Z,28.40
2022-12-04T20:31:31.622Z,28.33
2022-12-04T20:33:59.005Z,32.55
2022-12-04T20:36:26.482Z,28.98
2022-12-04T20:38:55.231Z,29.45
2022-12-04T20:41:21.728Z,26.30
2022-12-04T20:43:48.141Z,31.88
2022-12-04T20:46:19.201Z,29.13
2022-12-04T20:48:49.169Z,20.02
2022-12-04T20:51:19.622Z,29.92
2022-12-04T20:53:46.492Z,31.70
2022-12-04T20:56:13.071Z,31.88
2022-12-04T20:58:40.650Z,33.17
2022-12-04T21:01:17.569Z,32.15
2022-12-04T21:03:45.299Z,30.13
2022-12-04T21:06:15.228Z,30.35
2022-12-04T21:08:56.324Z,34.33
2022-12-04T21:11:26.985Z,31.42
2022-12-04T21:14:12.862Z,33.70
2022-12-04T21:16:39.880Z,34.08
2022-12-04T21:19:07.131Z,29.85
2022-12-04T21:21:33.720Z,29.58
2022-12-04T21:24:00.008Z,30.20
2022-12-04T21:26:31.658Z,31.20
2022-12-04T21:28:58.384Z,22.15
2022-12-04T21:31:26.903Z,32.58
2022-12-04T21:33:53.345Z,28.38
2022-12-04T21:36:19.768Z,22.63
2022-12-04T21:38:46.080Z,34.20
2022-12-04T21:41:35.192Z,25.90
2022-12-04T21:44:04.890Z,30.50
2022-12-04T21:46:32.092Z,25.75
2022-12-04T21:48:58.933Z,33.22
2022-12-04T21:51:48.752Z,34.67
2022-12-04T21:54:12.129Z,32.35
2022-12-04T21:56:38.537Z,35.70
2022-12-04T21:59:04.928Z,29.48
2022-12-04T22:01:31.412Z,31.80
2022-12-04T22:03:57.851Z,29.83
2022-12-04T22:06:25.577Z,31.58
2022-12-04T22:08:51.971Z,31.30
2022-12-04T22:11:19.196Z,29.17
2022-12-04T22:13:45.570Z,32.70
2022-12-04T22:16:13.304Z,28.83
2022-12-04T22:18:39.994Z,29.90
2022-12-04T22:21:07.941Z,30.88
2022-12-04T22:23:34.463Z,32.30
2022-12-04T22:26:07.808Z,26.90
2022-12-04T22:28:34.249Z,32.03
2022-12-04T22:31:05.083Z,30.30
2022-12-04T22:33:31.893Z,31.70
2022-12-04T22:36:05.392Z,29.35
2022-12-04T22:38:31.752Z,28.83
2022-12-04T22:41:02.088Z,26.52
2022-12-04T22:43:29.449Z,31.83
2022-12-04T22:45:55.922Z,30.95
2022-12-04T22:48:22.197Z,30.95
2022-12-04T22:50:57.437Z,30.20
2022-12-04T22:53:24.322Z,29.15
2022-12-04T22:55:50.638Z,30.08
2022-12-04T22:58:16.964Z,27.38
2022-12-04T23:00:43.301Z,26.00
2022-12-04T23:03:09.637Z,23.92
2022-12-04T23:05:36.359Z,30.27
2022-12-04T23:08:02.936Z,24.48
2022-12-04T23:10:29.278Z,23.23
2022-12-04T23:12:55.619Z,28.23
2022-12-04T23:15:22.169Z,28.38
2022-12-04T23:17:48.508Z,29.55
2022-12-04T23:20:14.836Z,17.30
2022-12-04T23:22:41.127Z,21.83
2022-12-04T23:25:07.645Z,23.35
2022-12-04T23:27:34.228Z,18.00
2022-12-04T23:30:00.525Z,26.15
2022-12-04T23:32:26.783Z,25.38
2022-12-04T23:34:53.175Z,21.52
2022-12-04T23:37:19.500Z,28.00
2022-12-04T23:39:45.817Z,21.05
2022-12-04T23:42:12.088Z,27.02
2022-12-04T23:44:38.454Z,25.08
2022-12-04T23:47:04.892Z,27.48
2022-12-04T23:49:31.300Z,23.77
2022-12-04T23:51:57.621Z,25.98
2022-12-04T23:54:23.969Z,25.25
2022-12-04T23:56:50.310Z,23.30
2022-12-04T23:59:16.582Z,22.00
